Terminal Aerodrome Forecast
Issued by NWS

Home | Current Version | Previous Version | Text Only | Print | Product List | Glossary On
Versions: 1 2 3 4 5 6 7 8 9 10 11 12 13 14 15 16 17 18 19
000
FTUS44 KTSA 012300
TAFFYV
TAF
KFYV 012339Z 0200/0224 36004KT P6SM OVC009
      TEMPO 0200/0204 5SM BR
     FM020400 02003KT 4SM BR OVC007
     FM021600 13005KT 5SM BR OVC007=

USA.gov is the U.S. government's official web portal to all federal, state and local government web resources and services.